Hartford, Connecticut
Traffic Map
Current Weather Conditions
Hartford, Connecticut
Overcast
Overcast
14°
Feels Like: 14°
Wind Chill: 14° Ceiling: 1900
Heat Index: 14° Visibility: 10mi
Dew Point: 11° Wind: 7mph
Humidity: 81% Direction: 360° (N)
Pressure: 30.32in Gusts: 0mph
Raw Report DataKHFD 290253Z 36006KT 10SM OVC019 14/11 A3032 RMK AO2 SLP265 T01390106 51015
Traffic Incident Summary
Active as of:
Severity:
Category:
InformationThere was an issue retrieving the traffic information for this location. Please try a different location or try again shortly.
Advertisements
Track Severe Weather on mobile